sensor_id;sensor_type;location;lat;lon;timestamp;temperature;humidity
27803;DHT22;15182;48.174;11.562;2023-04-26T00:02:26;12.10;95.60
27803;DHT22;15182;48.174;11.562;2023-04-26T00:04:58;12.10;95.60
27803;DHT22;15182;48.174;11.562;2023-04-26T00:07:31;12.10;95.60
27803;DHT22;15182;48.174;11.562;2023-04-26T00:10:06;12.10;95.60
27803;DHT22;15182;48.174;11.562;2023-04-26T00:12:40;12.10;95.60
27803;DHT22;15182;48.174;11.562;2023-04-26T00:15:11;12.10;95.60
27803;DHT22;15182;48.174;11.562;2023-04-26T00:17:45;12.10;95.60
27803;DHT22;15182;48.174;11.562;2023-04-26T00:20:20;12.10;95.60
27803;DHT22;15182;48.174;11.562;2023-04-26T00:22:53;12.10;95.50
27803;DHT22;15182;48.174;11.562;2023-04-26T00:25:25;12.10;95.50
27803;DHT22;15182;48.174;11.562;2023-04-26T00:27:57;12.10;95.40
27803;DHT22;15182;48.174;11.562;2023-04-26T00:30:30;12.10;95.50
27803;DHT22;15182;48.174;11.562;2023-04-26T00:33:04;12.10;95.50
27803;DHT22;15182;48.174;11.562;2023-04-26T00:35:35;12.00;95.50
27803;DHT22;15182;48.174;11.562;2023-04-26T00:38:07;12.00;95.50
27803;DHT22;15182;48.174;11.562;2023-04-26T00:40:37;12.00;95.60
27803;DHT22;15182;48.174;11.562;2023-04-26T00:43:10;12.00;96.00
27803;DHT22;15182;48.174;11.562;2023-04-26T00:45:41;12.00;95.70
27803;DHT22;15182;48.174;11.562;2023-04-26T00:48:13;11.90;95.70
27803;DHT22;15182;48.174;11.562;2023-04-26T00:50:47;11.90;95.80
27803;DHT22;15182;48.174;11.562;2023-04-26T00:53:18;11.90;95.80
27803;DHT22;15182;48.174;11.562;2023-04-26T00:55:52;11.90;95.80
27803;DHT22;15182;48.174;11.562;2023-04-26T00:58:26;11.90;95.80
27803;DHT22;15182;48.174;11.562;2023-04-26T01:00:59;11.90;95.80
27803;DHT22;15182;48.174;11.562;2023-04-26T01:03:31;11.90;95.80
27803;DHT22;15182;48.174;11.562;2023-04-26T01:06:02;11.90;95.70
27803;DHT22;15182;48.174;11.562;2023-04-26T01:08:34;11.90;95.70
27803;DHT22;15182;48.174;11.562;2023-04-26T01:11:05;11.90;95.70
27803;DHT22;15182;48.174;11.562;2023-04-26T01:13:39;11.80;95.80
27803;DHT22;15182;48.174;11.562;2023-04-26T01:16:15;11.90;95.80
27803;DHT22;15182;48.174;11.562;2023-04-26T01:18:53;11.80;95.80
27803;DHT22;15182;48.174;11.562;2023-04-26T01:21:25;11.80;95.90
27803;DHT22;15182;48.174;11.562;2023-04-26T01:23:58;11.80;95.80
27803;DHT22;15182;48.174;11.562;2023-04-26T01:26:29;11.80;95.90
27803;DHT22;15182;48.174;11.562;2023-04-26T01:29:02;11.70;95.80
27803;DHT22;15182;48.174;11.562;2023-04-26T01:31:43;11.70;95.90
27803;DHT22;15182;48.174;11.562;2023-04-26T01:34:15;11.60;95.80
27803;DHT22;15182;48.174;11.562;2023-04-26T01:36:47;11.60;95.80
27803;DHT22;15182;48.174;11.562;2023-04-26T01:39:20;11.60;95.80
27803;DHT22;15182;48.174;11.562;2023-04-26T01:41:53;11.50;96.30
27803;DHT22;15182;48.174;11.562;2023-04-26T01:44:25;11.50;96.00
27803;DHT22;15182;48.174;11.562;2023-04-26T01:47:05;11.50;96.10
27803;DHT22;15182;48.174;11.562;2023-04-26T01:49:36;11.50;96.00
27803;DHT22;15182;48.174;11.562;2023-04-26T01:52:08;11.50;96.00
27803;DHT22;15182;48.174;11.562;2023-04-26T01:54:40;11.50;96.00
27803;DHT22;15182;48.174;11.562;2023-04-26T01:57:12;11.50;96.10
27803;DHT22;15182;48.174;11.562;2023-04-26T01:59:47;11.50;96.10
27803;DHT22;15182;48.174;11.562;2023-04-26T02:02:20;11.50;96.10
27803;DHT22;15182;48.174;11.562;2023-04-26T02:04:51;11.40;96.10
27803;DHT22;15182;48.174;11.562;2023-04-26T02:07:24;11.40;96.10
27803;DHT22;15182;48.174;11.562;2023-04-26T02:09:59;11.40;96.20
27803;DHT22;15182;48.174;11.562;2023-04-26T02:12:31;11.50;96.20
27803;DHT22;15182;48.174;11.562;2023-04-26T02:15:05;11.50;96.10
27803;DHT22;15182;48.174;11.562;2023-04-26T02:17:37;11.40;96.20
27803;DHT22;15182;48.174;11.562;2023-04-26T02:20:10;11.40;96.20
27803;DHT22;15182;48.174;11.562;2023-04-26T02:22:43;11.40;96.20
27803;DHT22;15182;48.174;11.562;2023-04-26T02:25:17;11.40;96.30
27803;DHT22;15182;48.174;11.562;2023-04-26T02:27:49;11.40;96.30
27803;DHT22;15182;48.174;11.562;2023-04-26T02:30:20;11.40;96.30
27803;DHT22;15182;48.174;11.562;2023-04-26T02:32:54;11.40;96.30
27803;DHT22;15182;48.174;11.562;2023-04-26T02:35:25;11.40;96.30
27803;DHT22;15182;48.174;11.562;2023-04-26T02:37:56;11.40;96.20
27803;DHT22;15182;48.174;11.562;2023-04-26T02:40:29;11.30;96.20
27803;DHT22;15182;48.174;11.562;2023-04-26T02:43:10;11.40;96.30
27803;DHT22;15182;48.174;11.562;2023-04-26T02:45:44;11.30;96.30
27803;DHT22;15182;48.174;11.562;2023-04-26T02:48:15;11.30;96.30
27803;DHT22;15182;48.174;11.562;2023-04-26T02:50:47;11.30;96.20
27803;DHT22;15182;48.174;11.562;2023-04-26T02:53:19;11.30;96.20
27803;DHT22;15182;48.174;11.562;2023-04-26T02:55:51;11.30;96.10
27803;DHT22;15182;48.174;11.562;2023-04-26T02:58:22;11.20;96.20
27803;DHT22;15182;48.174;11.562;2023-04-26T03:00:54;11.20;96.20
27803;DHT22;15182;48.174;11.562;2023-04-26T03:03:27;11.20;96.20
27803;DHT22;15182;48.174;11.562;2023-04-26T03:05:58;11.20;96.20
27803;DHT22;15182;48.174;11.562;2023-04-26T03:08:30;11.10;96.20
27803;DHT22;15182;48.174;11.562;2023-04-26T03:11:05;11.10;96.30
27803;DHT22;15182;48.174;11.562;2023-04-26T03:13:36;11.10;96.40
27803;DHT22;15182;48.174;11.562;2023-04-26T03:16:10;11.10;96.40
27803;DHT22;15182;48.174;11.562;2023-04-26T03:18:41;11.10;96.40
27803;DHT22;15182;48.174;11.562;2023-04-26T03:21:15;11.10;96.40
27803;DHT22;15182;48.174;11.562;2023-04-26T03:23:46;11.10;96.50
27803;DHT22;15182;48.174;11.562;2023-04-26T03:26:19;11.00;96.40
27803;DHT22;15182;48.174;11.562;2023-04-26T03:28:50;11.10;96.50
27803;DHT22;15182;48.174;11.562;2023-04-26T03:31:21;11.00;96.40
27803;DHT22;15182;48.174;11.562;2023-04-26T03:33:53;11.10;96.40
27803;DHT22;15182;48.174;11.562;2023-04-26T03:36:24;11.00;96.30
27803;DHT22;15182;48.174;11.562;2023-04-26T03:38:57;11.00;96.30
27803;DHT22;15182;48.174;11.562;2023-04-26T03:41:30;11.00;96.40
27803;DHT22;15182;48.174;11.562;2023-04-26T03:44:08;11.00;96.40
27803;DHT22;15182;48.174;11.562;2023-04-26T03:46:40;11.00;96.40
27803;DHT22;15182;48.174;11.562;2023-04-26T03:49:13;11.00;96.40
27803;DHT22;15182;48.174;11.562;2023-04-26T03:51:45;11.00;96.40
27803;DHT22;15182;48.174;11.562;2023-04-26T03:54:19;11.00;96.30
27803;DHT22;15182;48.174;11.562;2023-04-26T03:56:51;11.00;96.30
27803;DHT22;15182;48.174;11.562;2023-04-26T03:59:23;11.00;96.40
27803;DHT22;15182;48.174;11.562;2023-04-26T04:01:56;11.00;96.30
27803;DHT22;15182;48.174;11.562;2023-04-26T04:04:28;11.00;96.40
27803;DHT22;15182;48.174;11.562;2023-04-26T04:07:00;11.00;96.40
27803;DHT22;15182;48.174;11.562;2023-04-26T04:09:31;10.90;96.40
27803;DHT22;15182;48.174;11.562;2023-04-26T04:12:04;10.90;96.50
27803;DHT22;15182;48.174;11.562;2023-04-26T04:14:36;10.90;96.60
27803;DHT22;15182;48.174;11.562;2023-04-26T04:17:09;10.90;96.50
27803;DHT22;15182;48.174;11.562;2023-04-26T04:19:41;10.90;96.60
27803;DHT22;15182;48.174;11.562;2023-04-26T04:22:15;10.90;96.50
27803;DHT22;15182;48.174;11.562;2023-04-26T04:24:46;11.00;96.50
27803;DHT22;15182;48.174;11.562;2023-04-26T04:27:19;10.90;96.40
27803;DHT22;15182;48.174;11.562;2023-04-26T04:29:50;10.90;96.50
27803;DHT22;15182;48.174;11.562;2023-04-26T04:32:24;10.90;96.50
27803;DHT22;15182;48.174;11.562;2023-04-26T04:34:58;10.90;96.60
27803;DHT22;15182;48.174;11.562;2023-04-26T04:37:29;10.90;96.70
27803;DHT22;15182;48.174;11.562;2023-04-26T04:40:02;10.90;96.60
27803;DHT22;15182;48.174;11.562;2023-04-26T04:42:37;10.90;96.70
27803;DHT22;15182;48.174;11.562;2023-04-26T04:45:13;10.90;96.70
27803;DHT22;15182;48.174;11.562;2023-04-26T04:47:46;10.90;96.70
27803;DHT22;15182;48.174;11.562;2023-04-26T04:50:19;10.90;96.60
27803;DHT22;15182;48.174;11.562;2023-04-26T04:52:51;10.90;96.60
27803;DHT22;15182;48.174;11.562;2023-04-26T04:55:24;10.80;96.60
27803;DHT22;15182;48.174;11.562;2023-04-26T04:57:57;10.80;96.70
27803;DHT22;15182;48.174;11.562;2023-04-26T05:00:30;10.80;96.70
27803;DHT22;15182;48.174;11.562;2023-04-26T05:03:24;10.80;97.00
27803;DHT22;15182;48.174;11.562;2023-04-26T05:05:55;10.80;96.70
27803;DHT22;15182;48.174;11.562;2023-04-26T05:08:28;10.80;96.70
27803;DHT22;15182;48.174;11.562;2023-04-26T05:11:03;10.70;96.80
27803;DHT22;15182;48.174;11.562;2023-04-26T05:13:36;10.70;96.70
27803;DHT22;15182;48.174;11.562;2023-04-26T05:16:07;10.70;96.80
27803;DHT22;15182;48.174;11.562;2023-04-26T05:18:39;10.70;96.80
27803;DHT22;15182;48.174;11.562;2023-04-26T05:21:11;10.60;96.80
27803;DHT22;15182;48.174;11.562;2023-04-26T05:23:42;10.70;97.00
27803;DHT22;15182;48.174;11.562;2023-04-26T05:26:15;10.60;97.00
27803;DHT22;15182;48.174;11.562;2023-04-26T05:28:59;10.60;97.10
27803;DHT22;15182;48.174;11.562;2023-04-26T05:31:45;10.60;97.10
27803;DHT22;15182;48.174;11.562;2023-04-26T05:34:35;10.70;97.20
27803;DHT22;15182;48.174;11.562;2023-04-26T05:37:06;10.70;97.20
27803;DHT22;15182;48.174;11.562;2023-04-26T05:39:38;10.70;97.10
27803;DHT22;15182;48.174;11.562;2023-04-26T05:42:10;10.80;97.20
27803;DHT22;15182;48.174;11.562;2023-04-26T05:44:43;10.80;97.20
27803;DHT22;15182;48.174;11.562;2023-04-26T05:47:14;10.80;97.10
27803;DHT22;15182;48.174;11.562;2023-04-26T05:49:45;10.80;97.20
27803;DHT22;15182;48.174;11.562;2023-04-26T05:52:16;10.80;97.10
27803;DHT22;15182;48.174;11.562;2023-04-26T05:54:48;10.90;97.00
27803;DHT22;15182;48.174;11.562;2023-04-26T05:57:22;10.80;97.30
27803;DHT22;15182;48.174;11.562;2023-04-26T05:59:55;10.90;97.10
27803;DHT22;15182;48.174;11.562;2023-04-26T06:02:29;10.90;97.10
27803;DHT22;15182;48.174;11.562;2023-04-26T06:05:00;10.90;97.10
27803;DHT22;15182;48.174;11.562;2023-04-26T06:07:35;10.90;97.10
27803;DHT22;15182;48.174;11.562;2023-04-26T06:10:08;10.90;97.10
27803;DHT22;15182;48.174;11.562;2023-04-26T06:12:41;10.90;97.20
27803;DHT22;15182;48.174;11.562;2023-04-26T06:15:14;10.90;97.20
27803;DHT22;15182;48.174;11.562;2023-04-26T06:17:45;11.00;97.30
27803;DHT22;15182;48.174;11.562;2023-04-26T06:20:19;11.00;97.20
27803;DHT22;15182;48.174;11.562;2023-04-26T06:22:50;11.00;97.60
27803;DHT22;15182;48.174;11.562;2023-04-26T06:25:22;11.00;97.20
27803;DHT22;15182;48.174;11.562;2023-04-26T06:27:54;11.00;97.40
27803;DHT22;15182;48.174;11.562;2023-04-26T06:30:27;11.00;97.40
27803;DHT22;15182;48.174;11.562;2023-04-26T06:32:59;11.10;97.40
27803;DHT22;15182;48.174;11.562;2023-04-26T06:35:34;11.10;97.40
27803;DHT22;15182;48.174;11.562;2023-04-26T06:38:10;11.20;97.50
27803;DHT22;15182;48.174;11.562;2023-04-26T06:40:42;11.20;97.50
27803;DHT22;15182;48.174;11.562;2023-04-26T06:43:13;11.30;97.50
27803;DHT22;15182;48.174;11.562;2023-04-26T06:46:09;11.30;97.40
27803;DHT22;15182;48.174;11.562;2023-04-26T06:48:41;11.40;97.30
27803;DHT22;15182;48.174;11.562;2023-04-26T06:51:12;11.40;97.30
27803;DHT22;15182;48.174;11.562;2023-04-26T06:53:43;11.40;97.40
27803;DHT22;15182;48.174;11.562;2023-04-26T06:56:15;11.50;97.60
27803;DHT22;15182;48.174;11.562;2023-04-26T06:58:59;11.50;97.60
27803;DHT22;15182;48.174;11.562;2023-04-26T07:01:34;11.60;97.50
27803;DHT22;15182;48.174;11.562;2023-04-26T07:04:07;11.70;97.20
27803;DHT22;15182;48.174;11.562;2023-04-26T07:06:40;11.80;96.90
27803;DHT22;15182;48.174;11.562;2023-04-26T07:09:11;11.80;96.60
27803;DHT22;15182;48.174;11.562;2023-04-26T07:11:44;11.80;96.50
27803;DHT22;15182;48.174;11.562;2023-04-26T07:14:15;11.80;96.40
27803;DHT22;15182;48.174;11.562;2023-04-26T07:16:48;11.70;96.40
27803;DHT22;15182;48.174;11.562;2023-04-26T07:19:19;11.70;96.40
27803;DHT22;15182;48.174;11.562;2023-04-26T07:21:50;11.80;96.40
27803;DHT22;15182;48.174;11.562;2023-04-26T07:24:23;11.80;96.40
27803;DHT22;15182;48.174;11.562;2023-04-26T07:26:55;11.80;96.30
27803;DHT22;15182;48.174;11.562;2023-04-26T07:29:26;11.80;96.30
27803;DHT22;15182;48.174;11.562;2023-04-26T07:31:59;11.80;96.20
27803;DHT22;15182;48.174;11.562;2023-04-26T07:34:32;11.90;96.30
27803;DHT22;15182;48.174;11.562;2023-04-26T07:37:03;11.90;96.70
27803;DHT22;15182;48.174;11.562;2023-04-26T07:39:37;12.00;96.40
27803;DHT22;15182;48.174;11.562;2023-04-26T07:42:08;12.00;96.30
27803;DHT22;15182;48.174;11.562;2023-04-26T07:44:41;12.00;96.20
27803;DHT22;15182;48.174;11.562;2023-04-26T07:47:14;12.10;96.20
27803;DHT22;15182;48.174;11.562;2023-04-26T07:49:47;12.10;96.20
27803;DHT22;15182;48.174;11.562;2023-04-26T07:52:23;12.20;96.30
27803;DHT22;15182;48.174;11.562;2023-04-26T07:54:54;12.20;96.30
27803;DHT22;15182;48.174;11.562;2023-04-26T07:57:25;12.30;96.00
27803;DHT22;15182;48.174;11.562;2023-04-26T07:59:57;12.30;95.70
27803;DHT22;15182;48.174;11.562;2023-04-26T08:02:29;12.30;95.60
27803;DHT22;15182;48.174;11.562;2023-04-26T08:05:00;12.40;95.40
27803;DHT22;15182;48.174;11.562;2023-04-26T08:07:32;12.40;95.40
27803;DHT22;15182;48.174;11.562;2023-04-26T08:10:03;12.40;95.40
27803;DHT22;15182;48.174;11.562;2023-04-26T08:12:39;12.40;95.50
27803;DHT22;15182;48.174;11.562;2023-04-26T08:15:12;12.40;95.60
27803;DHT22;15182;48.174;11.562;2023-04-26T08:17:44;12.50;95.50
27803;DHT22;15182;48.174;11.562;2023-04-26T08:20:19;12.60;95.60
27803;DHT22;15182;48.174;11.562;2023-04-26T08:22:54;12.70;95.50
27803;DHT22;15182;48.174;11.562;2023-04-26T08:25:26;12.90;95.50
27803;DHT22;15182;48.174;11.562;2023-04-26T08:27:57;13.00;95.30
27803;DHT22;15182;48.174;11.562;2023-04-26T08:30:28;13.10;95.10
27803;DHT22;15182;48.174;11.562;2023-04-26T08:33:01;13.20;95.00
27803;DHT22;15182;48.174;11.562;2023-04-26T08:35:33;13.30;94.60
27803;DHT22;15182;48.174;11.562;2023-04-26T08:38:05;13.40;94.30
27803;DHT22;15182;48.174;11.562;2023-04-26T08:40:37;13.40;94.10
27803;DHT22;15182;48.174;11.562;2023-04-26T08:43:09;13.50;93.80
27803;DHT22;15182;48.174;11.562;2023-04-26T08:45:45;13.50;94.00
27803;DHT22;15182;48.174;11.562;2023-04-26T08:48:19;13.60;94.30
27803;DHT22;15182;48.174;11.562;2023-04-26T08:50:53;13.50;93.80
27803;DHT22;15182;48.174;11.562;2023-04-26T08:53:25;13.60;93.70
27803;DHT22;15182;48.174;11.562;2023-04-26T08:55:57;13.60;93.60
27803;DHT22;15182;48.174;11.562;2023-04-26T08:58:30;13.60;93.50
27803;DHT22;15182;48.174;11.562;2023-04-26T09:01:02;13.70;93.50
27803;DHT22;15182;48.174;11.562;2023-04-26T09:03:35;13.70;93.30
27803;DHT22;15182;48.174;11.562;2023-04-26T09:06:08;13.70;92.80
27803;DHT22;15182;48.174;11.562;2023-04-26T09:08:40;13.80;92.80
27803;DHT22;15182;48.174;11.562;2023-04-26T09:11:12;13.80;92.70
27803;DHT22;15182;48.174;11.562;2023-04-26T09:13:45;13.80;92.80
27803;DHT22;15182;48.174;11.562;2023-04-26T09:16:16;13.70;92.80
27803;DHT22;15182;48.174;11.562;2023-04-26T09:18:51;13.80;92.60
27803;DHT22;15182;48.174;11.562;2023-04-26T09:21:25;13.80;92.30
27803;DHT22;15182;48.174;11.562;2023-04-26T09:24:00;13.80;92.30
27803;DHT22;15182;48.174;11.562;2023-04-26T09:26:33;13.90;92.20
27803;DHT22;15182;48.174;11.562;2023-04-26T09:29:15;13.90;92.30
27803;DHT22;15182;48.174;11.562;2023-04-26T09:31:50;14.00;92.10
27803;DHT22;15182;48.174;11.562;2023-04-26T09:34:24;14.10;92.10
27803;DHT22;15182;48.174;11.562;2023-04-26T09:36:57;14.10;91.90
27803;DHT22;15182;48.174;11.562;2023-04-26T09:39:34;14.10;91.50
27803;DHT22;15182;48.174;11.562;2023-04-26T09:42:08;14.10;91.30
27803;DHT22;15182;48.174;11.562;2023-04-26T09:44:40;14.10;91.70
27803;DHT22;15182;48.174;11.562;2023-04-26T09:47:12;14.10;91.50
27803;DHT22;15182;48.174;11.562;2023-04-26T09:49:47;14.10;91.30
27803;DHT22;15182;48.174;11.562;2023-04-26T09:52:20;14.10;91.20
27803;DHT22;15182;48.174;11.562;2023-04-26T09:54:54;14.10;91.20
27803;DHT22;15182;48.174;11.562;2023-04-26T09:57:25;14.10;90.80
27803;DHT22;15182;48.174;11.562;2023-04-26T09:59:58;14.10;90.90
27803;DHT22;15182;48.174;11.562;2023-04-26T10:02:33;14.10;90.80
27803;DHT22;15182;48.174;11.562;2023-04-26T10:05:08;14.10;90.70
27803;DHT22;15182;48.174;11.562;2023-04-26T10:07:39;14.10;90.70
27803;DHT22;15182;48.174;11.562;2023-04-26T10:10:12;14.10;90.70
27803;DHT22;15182;48.174;11.562;2023-04-26T10:12:44;14.10;90.70
27803;DHT22;15182;48.174;11.562;2023-04-26T10:15:15;14.20;90.90
27803;DHT22;15182;48.174;11.562;2023-04-26T10:17:52;14.20;90.70
27803;DHT22;15182;48.174;11.562;2023-04-26T10:20:27;14.30;90.60
27803;DHT22;15182;48.174;11.562;2023-04-26T10:23:02;14.30;90.40
27803;DHT22;15182;48.174;11.562;2023-04-26T10:25:37;14.40;90.30
27803;DHT22;15182;48.174;11.562;2023-04-26T10:28:09;14.50;90.70
27803;DHT22;15182;48.174;11.562;2023-04-26T10:30:59;14.70;91.10
27803;DHT22;15182;48.174;11.562;2023-04-26T10:33:32;15.10;90.70
27803;DHT22;15182;48.174;11.562;2023-04-26T10:36:08;15.40;91.10
27803;DHT22;15182;48.174;11.562;2023-04-26T10:41:49;16.10;90.40
27803;DHT22;15182;48.174;11.562;2023-04-26T10:44:38;16.50;89.80
27803;DHT22;15182;48.174;11.562;2023-04-26T10:47:28;16.60;87.60
27803;DHT22;15182;48.174;11.562;2023-04-26T10:50:08;16.70;86.80
27803;DHT22;15182;48.174;11.562;2023-04-26T10:53:06;16.70;86.70
27803;DHT22;15182;48.174;11.562;2023-04-26T10:55:41;16.70;86.70
27803;DHT22;15182;48.174;11.562;2023-04-26T10:58:28;16.80;86.30
27803;DHT22;15182;48.174;11.562;2023-04-26T11:01:10;17.00;85.90
27803;DHT22;15182;48.174;11.562;2023-04-26T11:04:07;17.30;86.60
27803;DHT22;15182;48.174;11.562;2023-04-26T11:06:50;17.60;86.40
27803;DHT22;15182;48.174;11.562;2023-04-26T11:09:33;17.80;85.60
27803;DHT22;15182;48.174;11.562;2023-04-26T11:12:13;18.10;84.10
27803;DHT22;15182;48.174;11.562;2023-04-26T11:14:45;18.40;83.80
27803;DHT22;15182;48.174;11.562;2023-04-26T11:17:16;18.60;84.50
27803;DHT22;15182;48.174;11.562;2023-04-26T11:19:48;18.80;84.10
27803;DHT22;15182;48.174;11.562;2023-04-26T11:22:22;18.90;83.50
27803;DHT22;15182;48.174;11.562;2023-04-26T11:24:55;18.90;82.00
27803;DHT22;15182;48.174;11.562;2023-04-26T11:27:28;18.90;81.30
27803;DHT22;15182;48.174;11.562;2023-04-26T11:30:03;18.80;80.70
27803;DHT22;15182;48.174;11.562;2023-04-26T11:32:36;18.60;80.60
27803;DHT22;15182;48.174;11.562;2023-04-26T11:35:10;18.40;80.60
27803;DHT22;15182;48.174;11.562;2023-04-26T11:37:43;18.20;80.30
27803;DHT22;15182;48.174;11.562;2023-04-26T11:40:18;17.90;81.30
27803;DHT22;15182;48.174;11.562;2023-04-26T11:42:49;17.80;81.80
27803;DHT22;15182;48.174;11.562;2023-04-26T11:45:20;17.60;81.60
27803;DHT22;15182;48.174;11.562;2023-04-26T11:47:55;17.60;81.80
27803;DHT22;15182;48.174;11.562;2023-04-26T11:50:27;17.60;81.40
27803;DHT22;15182;48.174;11.562;2023-04-26T11:53:02;17.60;81.30
27803;DHT22;15182;48.174;11.562;2023-04-26T11:55:36;17.60;80.60
27803;DHT22;15182;48.174;11.562;2023-04-26T11:58:15;17.60;81.20
27803;DHT22;15182;48.174;11.562;2023-04-26T12:00:56;17.60;80.60
27803;DHT22;15182;48.174;11.562;2023-04-26T12:03:32;17.70;81.20
27803;DHT22;15182;48.174;11.562;2023-04-26T12:06:12;17.80;80.60
27803;DHT22;15182;48.174;11.562;2023-04-26T12:08:50;17.90;79.10
27803;DHT22;15182;48.174;11.562;2023-04-26T12:11:22;18.00;78.80
27803;DHT22;15182;48.174;11.562;2023-04-26T12:13:54;18.10;78.90
27803;DHT22;15182;48.174;11.562;2023-04-26T12:16:28;18.00;78.50
27803;DHT22;15182;48.174;11.562;2023-04-26T12:19:03;17.90;78.90
27803;DHT22;15182;48.174;11.562;2023-04-26T12:21:42;17.90;78.70
27803;DHT22;15182;48.174;11.562;2023-04-26T12:24:29;17.80;78.10
27803;DHT22;15182;48.174;11.562;2023-04-26T12:27:05;17.80;78.20
27803;DHT22;15182;48.174;11.562;2023-04-26T12:29:37;17.80;78.70
27803;DHT22;15182;48.174;11.562;2023-04-26T12:32:10;17.90;79.00
27803;DHT22;15182;48.174;11.562;2023-04-26T12:34:41;18.00;78.40
27803;DHT22;15182;48.174;11.562;2023-04-26T12:37:15;18.10;78.10
27803;DHT22;15182;48.174;11.562;2023-04-26T12:39:47;18.10;77.00
27803;DHT22;15182;48.174;11.562;2023-04-26T12:42:19;18.00;77.00
27803;DHT22;15182;48.174;11.562;2023-04-26T12:44:50;17.90;76.80
27803;DHT22;15182;48.174;11.562;2023-04-26T12:47:22;17.80;77.00
27803;DHT22;15182;48.174;11.562;2023-04-26T12:49:53;17.70;77.20
27803;DHT22;15182;48.174;11.562;2023-04-26T12:52:25;17.60;77.50
27803;DHT22;15182;48.174;11.562;2023-04-26T12:54:58;17.50;77.30
27803;DHT22;15182;48.174;11.562;2023-04-26T12:57:34;17.40;77.30
27803;DHT22;15182;48.174;11.562;2023-04-26T13:00:08;17.30;76.80
27803;DHT22;15182;48.174;11.562;2023-04-26T13:02:41;17.30;77.60
27803;DHT22;15182;48.174;11.562;2023-04-26T13:05:13;17.30;78.30
27803;DHT22;15182;48.174;11.562;2023-04-26T13:07:44;17.40;78.40
27803;DHT22;15182;48.174;11.562;2023-04-26T13:10:16;17.50;78.20
27803;DHT22;15182;48.174;11.562;2023-04-26T13:12:53;17.60;77.50
27803;DHT22;15182;48.174;11.562;2023-04-26T13:15:26;17.70;77.00
27803;DHT22;15182;48.174;11.562;2023-04-26T13:17:57;17.80;77.40
27803;DHT22;15182;48.174;11.562;2023-04-26T13:20:29;17.80;77.20
27803;DHT22;15182;48.174;11.562;2023-04-26T13:23:01;17.90;77.20
27803;DHT22;15182;48.174;11.562;2023-04-26T13:25:32;17.90;77.30
27803;DHT22;15182;48.174;11.562;2023-04-26T13:28:05;17.90;77.10
27803;DHT22;15182;48.174;11.562;2023-04-26T13:30:36;18.00;76.80
27803;DHT22;15182;48.174;11.562;2023-04-26T13:33:08;18.10;76.80
27803;DHT22;15182;48.174;11.562;2023-04-26T13:35:39;18.10;76.60
27803;DHT22;15182;48.174;11.562;2023-04-26T13:38:11;18.20;76.40
27803;DHT22;15182;48.174;11.562;2023-04-26T13:40:43;18.20;75.80
27803;DHT22;15182;48.174;11.562;2023-04-26T13:43:16;18.20;75.60
27803;DHT22;15182;48.174;11.562;2023-04-26T13:45:47;18.20;75.40
27803;DHT22;15182;48.174;11.562;2023-04-26T13:48:18;18.20;75.30
27803;DHT22;15182;48.174;11.562;2023-04-26T13:50:50;18.20;75.00
27803;DHT22;15182;48.174;11.562;2023-04-26T13:53:23;18.10;74.90
27803;DHT22;15182;48.174;11.562;2023-04-26T13:55:58;18.10;75.30
27803;DHT22;15182;48.174;11.562;2023-04-26T13:58:29;18.10;75.20
27803;DHT22;15182;48.174;11.562;2023-04-26T14:01:01;18.10;74.80
27803;DHT22;15182;48.174;11.562;2023-04-26T14:03:32;18.00;74.70
27803;DHT22;15182;48.174;11.562;2023-04-26T14:06:04;18.00;74.90
27803;DHT22;15182;48.174;11.562;2023-04-26T14:08:36;18.00;74.80
27803;DHT22;15182;48.174;11.562;2023-04-26T14:11:07;17.90;74.60
27803;DHT22;15182;48.174;11.562;2023-04-26T14:13:41;17.90;74.70
27803;DHT22;15182;48.174;11.562;2023-04-26T14:16:13;17.90;74.70
27803;DHT22;15182;48.174;11.562;2023-04-26T14:18:44;17.90;74.80
27803;DHT22;15182;48.174;11.562;2023-04-26T14:21:16;17.90;74.60
27803;DHT22;15182;48.174;11.562;2023-04-26T14:23:48;17.90;75.50
27803;DHT22;15182;48.174;11.562;2023-04-26T14:26:19;17.90;74.90
27803;DHT22;15182;48.174;11.562;2023-04-26T14:28:54;17.90;74.70
27803;DHT22;15182;48.174;11.562;2023-04-26T14:31:28;17.90;74.70
27803;DHT22;15182;48.174;11.562;2023-04-26T14:33:59;17.90;74.40
27803;DHT22;15182;48.174;11.562;2023-04-26T14:36:31;17.80;74.90
27803;DHT22;15182;48.174;11.562;2023-04-26T14:39:03;17.80;74.80
27803;DHT22;15182;48.174;11.562;2023-04-26T14:41:35;17.80;74.40
27803;DHT22;15182;48.174;11.562;2023-04-26T14:44:08;17.80;74.60
27803;DHT22;15182;48.174;11.562;2023-04-26T14:46:39;17.80;74.20
27803;DHT22;15182;48.174;11.562;2023-04-26T14:49:10;17.70;74.50
27803;DHT22;15182;48.174;11.562;2023-04-26T14:51:42;17.70;74.70
27803;DHT22;15182;48.174;11.562;2023-04-26T14:54:13;17.70;74.40
27803;DHT22;15182;48.174;11.562;2023-04-26T14:56:45;17.70;74.80
27803;DHT22;15182;48.174;11.562;2023-04-26T14:59:18;17.70;74.50
27803;DHT22;15182;48.174;11.562;2023-04-26T15:01:49;17.70;73.70
27803;DHT22;15182;48.174;11.562;2023-04-26T15:04:20;17.60;74.00
27803;DHT22;15182;48.174;11.562;2023-04-26T15:06:52;17.60;74.40
27803;DHT22;15182;48.174;11.562;2023-04-26T15:09:23;17.60;74.40
27803;DHT22;15182;48.174;11.562;2023-04-26T15:11:54;17.60;74.90
27803;DHT22;15182;48.174;11.562;2023-04-26T15:14:27;17.50;73.90
27803;DHT22;15182;48.174;11.562;2023-04-26T15:16:59;17.50;73.70
27803;DHT22;15182;48.174;11.562;2023-04-26T15:19:30;17.40;74.20
27803;DHT22;15182;48.174;11.562;2023-04-26T15:22:01;17.40;74.30
27803;DHT22;15182;48.174;11.562;2023-04-26T15:24:34;17.40;74.50
27803;DHT22;15182;48.174;11.562;2023-04-26T15:27:06;17.40;74.00
27803;DHT22;15182;48.174;11.562;2023-04-26T15:29:39;17.40;75.10
27803;DHT22;15182;48.174;11.562;2023-04-26T15:32:10;17.40;73.90
27803;DHT22;15182;48.174;11.562;2023-04-26T15:34:42;17.30;73.90
27803;DHT22;15182;48.174;11.562;2023-04-26T15:37:14;17.30;73.70
27803;DHT22;15182;48.174;11.562;2023-04-26T15:39:46;17.30;73.80
27803;DHT22;15182;48.174;11.562;2023-04-26T15:42:18;17.30;74.00
27803;DHT22;15182;48.174;11.562;2023-04-26T15:44:51;17.20;74.30
27803;DHT22;15182;48.174;11.562;2023-04-26T15:47:22;17.20;74.20
27803;DHT22;15182;48.174;11.562;2023-04-26T15:49:53;17.20;74.20
27803;DHT22;15182;48.174;11.562;2023-04-26T15:52:25;17.20;74.40
27803;DHT22;15182;48.174;11.562;2023-04-26T15:54:56;17.20;74.60
27803;DHT22;15182;48.174;11.562;2023-04-26T15:57:28;17.20;74.60